This is the latest recevied weather packets stored in our database for station/object YO8RBY-13. If no packets are shown the sender has not sent any weather packets the latest 10 day(s).
| Time | Temp. | Humidity | Pressure | Rain* | Wind** | Luminosity | Snow |
|---|---|---|---|---|---|---|---|
| 1777242226 | 1.67° C | 10% | - | - | - | - | - |
| 1777238027 | 3.89° C | 10% | - | - | - | - | - |
| 1777236827 | 3.89° C | 99% | 979.2 hPa | - | - | - | - |
| 1777236226 | 4.44° C | 94% | 979 hPa | - | - | - | - |
| 1777235628 | 5° C | 85% | 978.8 hPa | - | - | - | - |
| 1777233228 | 5.56° C | 61% | 977.9 hPa | - | - | - | - |
| 1777232627 | 5.56° C | 64% | 977.8 hPa | - | - | - | - |
| 1777230227 | 6.11° C | 59% | 976.9 hPa | - | - | - | - |
| 1777229626 | 6.11° C | 62% | 976.6 hPa | - | - | - | - |
| 1777223643 | 8.33° C | 43% | 974.4 hPa | - | - | - | - |
| 1777220626 | 9.44° C | 39% | 973.3 hPa | - | - | - | - |
| 1777217026 | 10.56° C | 37% | 972.3 hPa | - | - | - | - |
| 1777215827 | 10.56° C | 37% | 971.9 hPa | - | - | - | - |
| 1777210441 | 11.67° C | 41% | 970.5 hPa | - | - | - | - |
| 1777209829 | 11.11° C | 42% | 970.7 hPa | - | - | - | - |
| 1777206827 | 11.67° C | 48% | 970.4 hPa | - | - | - | - |
| 1777202026 | 10.56° C | 98% | 969.3 hPa | - | - | - | - |
| 1777200841 | 11.11° C | 10% | - | - | - | - | - |
| 1777194826 | 10° C | 10% | - | - | - | - | - |
| 1777194225 | 10.56° C | 10% | - | - | - | - | - |
| 1777192425 | 20° C | 28% | 964.5 hPa | - | - | - | - |
| 1777183427 | 18.33° C | 39% | 964.6 hPa | - | - | - | - |
| 1777182825 | 18.33° C | 46% | 964.5 hPa | - | - | - | - |
| 1777181025 | 16.67° C | 57% | 964.5 hPa | - | - | - | - |
| 1777179225 | 15° C | 74% | 964.7 hPa | - | - | - | - |
* Rain since midnight (hover to see other rain measurements)
** Current wind speed in m/s (hover to see current wind gust speed)